sensor_id;sensor_type;location;lat;lon;timestamp;P1;durP1;ratioP1;P2;durP2;ratioP2
12719;SDS011;6424;48.520;11.228;2023-06-22T00:00:58;9.67;;;7.10;;
12719;SDS011;6424;48.520;11.228;2023-06-22T00:03:39;9.67;;;6.63;;
12719;SDS011;6424;48.520;11.228;2023-06-22T00:06:19;9.43;;;7.03;;
12719;SDS011;6424;48.520;11.228;2023-06-22T00:09:00;9.93;;;6.20;;
12719;SDS011;6424;48.520;11.228;2023-06-22T00:11:41;8.73;;;6.73;;
12719;SDS011;6424;48.520;11.228;2023-06-22T00:14:22;9.90;;;6.47;;
12719;SDS011;6424;48.520;11.228;2023-06-22T00:17:02;10.00;;;6.23;;
12719;SDS011;6424;48.520;11.228;2023-06-22T00:19:43;8.83;;;5.93;;
12719;SDS011;6424;48.520;11.228;2023-06-22T00:22:27;10.57;;;6.27;;
12719;SDS011;6424;48.520;11.228;2023-06-22T00:25:11;9.27;;;6.07;;
12719;SDS011;6424;48.520;11.228;2023-06-22T00:27:52;12.20;;;7.00;;
12719;SDS011;6424;48.520;11.228;2023-06-22T00:30:33;8.93;;;6.53;;
12719;SDS011;6424;48.520;11.228;2023-06-22T00:33:14;10.57;;;6.50;;
12719;SDS011;6424;48.520;11.228;2023-06-22T00:35:56;8.43;;;6.27;;
12719;SDS011;6424;48.520;11.228;2023-06-22T00:38:37;9.23;;;6.57;;
12719;SDS011;6424;48.520;11.228;2023-06-22T00:41:20;10.83;;;7.03;;
12719;SDS011;6424;48.520;11.228;2023-06-22T00:44:00;9.23;;;6.50;;
12719;SDS011;6424;48.520;11.228;2023-06-22T00:46:41;9.30;;;7.03;;
12719;SDS011;6424;48.520;11.228;2023-06-22T00:49:22;8.00;;;6.97;;
12719;SDS011;6424;48.520;11.228;2023-06-22T00:52:03;13.00;;;6.10;;
12719;SDS011;6424;48.520;11.228;2023-06-22T00:54:49;11.63;;;7.40;;
12719;SDS011;6424;48.520;11.228;2023-06-22T00:57:30;9.37;;;6.70;;
12719;SDS011;6424;48.520;11.228;2023-06-22T01:00:12;10.00;;;6.50;;
12719;SDS011;6424;48.520;11.228;2023-06-22T01:02:54;7.77;;;6.97;;
12719;SDS011;6424;48.520;11.228;2023-06-22T01:05:35;12.87;;;7.57;;
12719;SDS011;6424;48.520;11.228;2023-06-22T01:11:18;8.97;;;7.03;;
12719;SDS011;6424;48.520;11.228;2023-06-22T01:16:52;11.23;;;7.10;;
12719;SDS011;6424;48.520;11.228;2023-06-22T01:19:45;11.77;;;7.80;;
12719;SDS011;6424;48.520;11.228;2023-06-22T01:22:57;12.10;;;7.20;;
12719;SDS011;6424;48.520;11.228;2023-06-22T01:28:54;9.33;;;7.00;;
12719;SDS011;6424;48.520;11.228;2023-06-22T01:31:37;10.27;;;7.50;;
12719;SDS011;6424;48.520;11.228;2023-06-22T01:34:19;11.23;;;7.90;;
12719;SDS011;6424;48.520;11.228;2023-06-22T01:37:01;11.63;;;8.03;;
12719;SDS011;6424;48.520;11.228;2023-06-22T01:39:43;9.97;;;7.80;;
12719;SDS011;6424;48.520;11.228;2023-06-22T01:42:25;12.53;;;8.00;;
12719;SDS011;6424;48.520;11.228;2023-06-22T01:44:54;12.90;;;8.23;;
12719;SDS011;6424;48.520;11.228;2023-06-22T01:47:36;11.47;;;8.47;;
12719;SDS011;6424;48.520;11.228;2023-06-22T01:50:18;13.20;;;8.77;;
12719;SDS011;6424;48.520;11.228;2023-06-22T01:52:59;12.03;;;7.73;;
12719;SDS011;6424;48.520;11.228;2023-06-22T01:55:25;12.60;;;8.67;;
12719;SDS011;6424;48.520;11.228;2023-06-22T01:58:06;12.27;;;8.53;;
12719;SDS011;6424;48.520;11.228;2023-06-22T02:00:32;12.67;;;8.77;;
12719;SDS011;6424;48.520;11.228;2023-06-22T02:03:21;12.23;;;8.80;;
12719;SDS011;6424;48.520;11.228;2023-06-22T02:06:06;10.90;;;8.67;;
12719;SDS011;6424;48.520;11.228;2023-06-22T02:08:51;9.33;;;8.33;;
12719;SDS011;6424;48.520;11.228;2023-06-22T02:11:37;9.47;;;8.50;;
12719;SDS011;6424;48.520;11.228;2023-06-22T02:14:20;10.23;;;9.07;;
12719;SDS011;6424;48.520;11.228;2023-06-22T02:17:02;9.27;;;7.90;;
12719;SDS011;6424;48.520;11.228;2023-06-22T02:19:29;10.37;;;8.37;;
12719;SDS011;6424;48.520;11.228;2023-06-22T02:22:13;11.87;;;8.30;;
12719;SDS011;6424;48.520;11.228;2023-06-22T02:24:53;11.40;;;7.77;;
12719;SDS011;6424;48.520;11.228;2023-06-22T02:27:34;12.47;;;8.10;;
12719;SDS011;6424;48.520;11.228;2023-06-22T02:30:15;13.93;;;8.53;;
12719;SDS011;6424;48.520;11.228;2023-06-22T02:32:56;12.77;;;8.60;;
12719;SDS011;6424;48.520;11.228;2023-06-22T02:35:39;11.93;;;8.80;;
12719;SDS011;6424;48.520;11.228;2023-06-22T02:38:10;12.47;;;8.53;;
12719;SDS011;6424;48.520;11.228;2023-06-22T02:40:51;8.90;;;7.93;;
12719;SDS011;6424;48.520;11.228;2023-06-22T02:43:32;9.47;;;7.90;;
12719;SDS011;6424;48.520;11.228;2023-06-22T02:46:13;10.07;;;7.43;;
12719;SDS011;6424;48.520;11.228;2023-06-22T02:48:54;10.13;;;8.13;;
12719;SDS011;6424;48.520;11.228;2023-06-22T02:51:19;11.20;;;8.50;;
12719;SDS011;6424;48.520;11.228;2023-06-22T02:54:00;11.13;;;7.73;;
12719;SDS011;6424;48.520;11.228;2023-06-22T02:56:28;10.27;;;7.53;;
12719;SDS011;6424;48.520;11.228;2023-06-22T02:59:10;11.73;;;7.90;;
12719;SDS011;6424;48.520;11.228;2023-06-22T03:01:51;9.77;;;7.93;;
12719;SDS011;6424;48.520;11.228;2023-06-22T03:04:32;10.53;;;8.17;;
12719;SDS011;6424;48.520;11.228;2023-06-22T03:07:14;12.17;;;8.10;;
12719;SDS011;6424;48.520;11.228;2023-06-22T03:09:57;13.33;;;7.73;;
12719;SDS011;6424;48.520;11.228;2023-06-22T03:12:38;11.57;;;9.00;;
12719;SDS011;6424;48.520;11.228;2023-06-22T03:15:19;11.27;;;8.50;;
12719;SDS011;6424;48.520;11.228;2023-06-22T03:18:00;18.00;;;9.80;;
12719;SDS011;6424;48.520;11.228;2023-06-22T03:20:41;13.77;;;9.30;;
12719;SDS011;6424;48.520;11.228;2023-06-22T03:23:22;10.77;;;9.20;;
12719;SDS011;6424;48.520;11.228;2023-06-22T03:26:02;12.73;;;9.00;;
12719;SDS011;6424;48.520;11.228;2023-06-22T03:28:44;12.83;;;9.47;;
12719;SDS011;6424;48.520;11.228;2023-06-22T03:31:25;11.53;;;10.27;;
12719;SDS011;6424;48.520;11.228;2023-06-22T03:34:05;12.20;;;9.20;;
12719;SDS011;6424;48.520;11.228;2023-06-22T03:36:46;14.10;;;9.63;;
12719;SDS011;6424;48.520;11.228;2023-06-22T03:39:27;12.23;;;9.83;;
12719;SDS011;6424;48.520;11.228;2023-06-22T03:42:08;12.70;;;9.50;;
12719;SDS011;6424;48.520;11.228;2023-06-22T03:44:34;12.43;;;8.83;;
12719;SDS011;6424;48.520;11.228;2023-06-22T03:47:01;12.17;;;8.43;;
12719;SDS011;6424;48.520;11.228;2023-06-22T03:49:44;9.77;;;8.70;;
12719;SDS011;6424;48.520;11.228;2023-06-22T03:52:24;16.33;;;9.43;;
12719;SDS011;6424;48.520;11.228;2023-06-22T03:55:06;10.17;;;9.17;;
12719;SDS011;6424;48.520;11.228;2023-06-22T03:57:47;9.33;;;8.43;;
12719;SDS011;6424;48.520;11.228;2023-06-22T04:00:27;12.70;;;9.77;;
12719;SDS011;6424;48.520;11.228;2023-06-22T04:03:08;11.83;;;9.27;;
12719;SDS011;6424;48.520;11.228;2023-06-22T04:05:49;11.93;;;9.13;;
12719;SDS011;6424;48.520;11.228;2023-06-22T04:08:30;11.57;;;9.43;;
12719;SDS011;6424;48.520;11.228;2023-06-22T04:11:11;12.87;;;9.57;;
12719;SDS011;6424;48.520;11.228;2023-06-22T04:13:36;16.60;;;10.87;;
12719;SDS011;6424;48.520;11.228;2023-06-22T04:16:17;16.97;;;9.80;;
12719;SDS011;6424;48.520;11.228;2023-06-22T04:18:58;12.97;;;9.07;;
12719;SDS011;6424;48.520;11.228;2023-06-22T04:21:38;12.07;;;8.93;;
12719;SDS011;6424;48.520;11.228;2023-06-22T04:24:19;9.07;;;8.17;;
12719;SDS011;6424;48.520;11.228;2023-06-22T04:26:45;9.67;;;7.87;;
12719;SDS011;6424;48.520;11.228;2023-06-22T04:29:27;10.80;;;8.03;;
12719;SDS011;6424;48.520;11.228;2023-06-22T04:32:10;9.43;;;7.97;;
12719;SDS011;6424;48.520;11.228;2023-06-22T04:34:52;9.30;;;7.37;;
12719;SDS011;6424;48.520;11.228;2023-06-22T04:37:33;10.20;;;8.53;;
12719;SDS011;6424;48.520;11.228;2023-06-22T04:40:14;9.63;;;8.67;;
12719;SDS011;6424;48.520;11.228;2023-06-22T04:42:55;9.23;;;8.30;;
12719;SDS011;6424;48.520;11.228;2023-06-22T04:45:36;11.67;;;8.47;;
12719;SDS011;6424;48.520;11.228;2023-06-22T04:48:18;8.97;;;7.50;;
12719;SDS011;6424;48.520;11.228;2023-06-22T04:50:59;12.00;;;8.73;;
12719;SDS011;6424;48.520;11.228;2023-06-22T04:53:43;13.20;;;8.87;;
12719;SDS011;6424;48.520;11.228;2023-06-22T04:56:24;10.17;;;9.03;;
12719;SDS011;6424;48.520;11.228;2023-06-22T04:59:08;12.37;;;8.37;;
12719;SDS011;6424;48.520;11.228;2023-06-22T05:01:53;10.00;;;8.73;;
12719;SDS011;6424;48.520;11.228;2023-06-22T05:04:37;11.20;;;8.23;;
12719;SDS011;6424;48.520;11.228;2023-06-22T05:07:18;8.43;;;7.63;;
12719;SDS011;6424;48.520;11.228;2023-06-22T05:09:59;9.03;;;7.33;;
12719;SDS011;6424;48.520;11.228;2023-06-22T05:12:41;9.70;;;7.67;;
12719;SDS011;6424;48.520;11.228;2023-06-22T05:15:22;10.23;;;7.97;;
12719;SDS011;6424;48.520;11.228;2023-06-22T05:18:06;10.13;;;8.17;;
12719;SDS011;6424;48.520;11.228;2023-06-22T05:20:47;9.60;;;7.30;;
12719;SDS011;6424;48.520;11.228;2023-06-22T05:23:28;11.77;;;8.23;;
12719;SDS011;6424;48.520;11.228;2023-06-22T05:26:08;12.07;;;8.17;;
12719;SDS011;6424;48.520;11.228;2023-06-22T05:28:50;10.17;;;8.27;;
12719;SDS011;6424;48.520;11.228;2023-06-22T05:31:16;10.77;;;9.17;;
12719;SDS011;6424;48.520;11.228;2023-06-22T05:33:59;10.73;;;8.83;;
12719;SDS011;6424;48.520;11.228;2023-06-22T05:36:40;9.13;;;8.00;;
12719;SDS011;6424;48.520;11.228;2023-06-22T05:39:24;10.87;;;8.23;;
12719;SDS011;6424;48.520;11.228;2023-06-22T05:42:06;8.93;;;7.63;;
12719;SDS011;6424;48.520;11.228;2023-06-22T05:44:47;9.80;;;8.10;;
12719;SDS011;6424;48.520;11.228;2023-06-22T05:47:28;10.30;;;8.70;;
12719;SDS011;6424;48.520;11.228;2023-06-22T05:50:09;11.07;;;8.00;;
12719;SDS011;6424;48.520;11.228;2023-06-22T05:52:50;9.63;;;8.63;;
12719;SDS011;6424;48.520;11.228;2023-06-22T05:55:31;10.73;;;8.90;;
12719;SDS011;6424;48.520;11.228;2023-06-22T05:58:12;9.80;;;8.80;;
12719;SDS011;6424;48.520;11.228;2023-06-22T06:00:53;11.80;;;8.53;;
12719;SDS011;6424;48.520;11.228;2023-06-22T06:03:34;13.17;;;8.87;;
12719;SDS011;6424;48.520;11.228;2023-06-22T06:06:21;10.87;;;8.23;;
12719;SDS011;6424;48.520;11.228;2023-06-22T06:08:47;8.87;;;7.80;;
12719;SDS011;6424;48.520;11.228;2023-06-22T06:11:28;13.47;;;7.67;;
12719;SDS011;6424;48.520;11.228;2023-06-22T06:14:09;13.07;;;8.70;;
12719;SDS011;6424;48.520;11.228;2023-06-22T06:16:50;12.13;;;9.30;;
12719;SDS011;6424;48.520;11.228;2023-06-22T06:19:31;11.73;;;8.80;;
12719;SDS011;6424;48.520;11.228;2023-06-22T06:22:12;11.43;;;9.20;;
12719;SDS011;6424;48.520;11.228;2023-06-22T06:24:53;10.63;;;8.30;;
12719;SDS011;6424;48.520;11.228;2023-06-22T06:27:33;9.27;;;8.20;;
12719;SDS011;6424;48.520;11.228;2023-06-22T06:30:15;11.13;;;9.17;;
12719;SDS011;6424;48.520;11.228;2023-06-22T06:32:57;9.70;;;8.60;;
12719;SDS011;6424;48.520;11.228;2023-06-22T06:35:37;10.57;;;9.57;;
12719;SDS011;6424;48.520;11.228;2023-06-22T06:38:18;11.73;;;9.23;;
12719;SDS011;6424;48.520;11.228;2023-06-22T06:40:59;13.33;;;9.07;;
12719;SDS011;6424;48.520;11.228;2023-06-22T06:43:40;8.63;;;7.70;;
12719;SDS011;6424;48.520;11.228;2023-06-22T06:46:22;11.60;;;8.93;;
12719;SDS011;6424;48.520;11.228;2023-06-22T06:49:03;12.83;;;10.47;;
12719;SDS011;6424;48.520;11.228;2023-06-22T06:51:44;11.87;;;8.67;;
12719;SDS011;6424;48.520;11.228;2023-06-22T06:54:24;10.63;;;8.83;;
12719;SDS011;6424;48.520;11.228;2023-06-22T06:57:05;8.73;;;7.30;;
12719;SDS011;6424;48.520;11.228;2023-06-22T06:59:46;9.63;;;6.73;;
12719;SDS011;6424;48.520;11.228;2023-06-22T07:02:27;8.10;;;6.77;;
12719;SDS011;6424;48.520;11.228;2023-06-22T07:05:11;7.80;;;5.87;;
12719;SDS011;6424;48.520;11.228;2023-06-22T07:07:52;6.63;;;4.27;;
12719;SDS011;6424;48.520;11.228;2023-06-22T07:10:33;8.07;;;4.50;;
12719;SDS011;6424;48.520;11.228;2023-06-22T07:13:14;7.83;;;4.63;;
12719;SDS011;6424;48.520;11.228;2023-06-22T07:15:55;7.03;;;4.77;;
12719;SDS011;6424;48.520;11.228;2023-06-22T07:18:21;6.63;;;4.30;;
12719;SDS011;6424;48.520;11.228;2023-06-22T07:21:01;9.30;;;4.37;;
12719;SDS011;6424;48.520;11.228;2023-06-22T07:23:31;7.50;;;4.07;;
12719;SDS011;6424;48.520;11.228;2023-06-22T07:25:57;7.50;;;4.57;;
12719;SDS011;6424;48.520;11.228;2023-06-22T07:28:23;9.77;;;4.93;;
12719;SDS011;6424;48.520;11.228;2023-06-22T07:31:03;11.60;;;5.40;;
12719;SDS011;6424;48.520;11.228;2023-06-22T07:33:29;9.50;;;4.13;;
12719;SDS011;6424;48.520;11.228;2023-06-22T07:36:10;8.43;;;3.93;;
12719;SDS011;6424;48.520;11.228;2023-06-22T07:38:51;10.20;;;4.63;;
12719;SDS011;6424;48.520;11.228;2023-06-22T07:41:32;6.70;;;4.70;;
12719;SDS011;6424;48.520;11.228;2023-06-22T07:44:13;7.40;;;4.60;;
12719;SDS011;6424;48.520;11.228;2023-06-22T07:46:38;7.97;;;4.93;;
12719;SDS011;6424;48.520;11.228;2023-06-22T07:49:19;7.53;;;4.53;;
12719;SDS011;6424;48.520;11.228;2023-06-22T07:52:00;8.40;;;4.07;;
12719;SDS011;6424;48.520;11.228;2023-06-22T07:54:41;8.90;;;4.20;;
12719;SDS011;6424;48.520;11.228;2023-06-22T07:57:07;9.50;;;4.23;;
12719;SDS011;6424;48.520;11.228;2023-06-22T07:59:48;10.97;;;4.20;;
12719;SDS011;6424;48.520;11.228;2023-06-22T08:02:29;9.60;;;4.57;;
12719;SDS011;6424;48.520;11.228;2023-06-22T08:05:09;10.40;;;4.60;;
12719;SDS011;6424;48.520;11.228;2023-06-22T08:07:51;6.97;;;4.23;;
12719;SDS011;6424;48.520;11.228;2023-06-22T08:10:33;6.60;;;4.43;;
12719;SDS011;6424;48.520;11.228;2023-06-22T08:13:14;8.27;;;4.43;;
12719;SDS011;6424;48.520;11.228;2023-06-22T08:15:55;8.87;;;4.70;;
12719;SDS011;6424;48.520;11.228;2023-06-22T08:18:36;9.03;;;4.63;;
12719;SDS011;6424;48.520;11.228;2023-06-22T08:21:17;8.17;;;4.50;;
12719;SDS011;6424;48.520;11.228;2023-06-22T08:23:57;9.10;;;4.43;;
12719;SDS011;6424;48.520;11.228;2023-06-22T08:26:38;8.50;;;4.10;;
12719;SDS011;6424;48.520;11.228;2023-06-22T08:29:04;10.55;;;4.20;;
12719;SDS011;6424;48.520;11.228;2023-06-22T08:31:45;11.20;;;4.85;;
12719;SDS011;6424;48.520;11.228;2023-06-22T08:34:25;8.85;;;4.88;;
12719;SDS011;6424;48.520;11.228;2023-06-22T08:37:08;9.13;;;4.63;;
12719;SDS011;6424;48.520;11.228;2023-06-22T08:39:49;10.52;;;4.93;;
12719;SDS011;6424;48.520;11.228;2023-06-22T08:42:30;7.55;;;4.70;;
12719;SDS011;6424;48.520;11.228;2023-06-22T08:45:12;11.57;;;5.07;;
12719;SDS011;6424;48.520;11.228;2023-06-22T08:47:53;9.35;;;4.47;;
12719;SDS011;6424;48.520;11.228;2023-06-22T08:50:34;10.15;;;4.50;;
12719;SDS011;6424;48.520;11.228;2023-06-22T08:53:15;9.13;;;4.32;;
12719;SDS011;6424;48.520;11.228;2023-06-22T08:55:55;9.88;;;5.18;;
12719;SDS011;6424;48.520;11.228;2023-06-22T08:58:36;8.88;;;4.68;;
12719;SDS011;6424;48.520;11.228;2023-06-22T09:01:02;10.82;;;4.72;;
12719;SDS011;6424;48.520;11.228;2023-06-22T09:03:43;8.30;;;4.20;;
12719;SDS011;6424;48.520;11.228;2023-06-22T09:06:08;11.73;;;5.30;;
12719;SDS011;6424;48.520;11.228;2023-06-22T09:08:49;8.73;;;4.50;;
12719;SDS011;6424;48.520;11.228;2023-06-22T09:11:30;9.52;;;4.13;;
12719;SDS011;6424;48.520;11.228;2023-06-22T09:14:11;7.85;;;4.30;;
12719;SDS011;6424;48.520;11.228;2023-06-22T09:16:51;8.95;;;4.68;;
12719;SDS011;6424;48.520;11.228;2023-06-22T09:19:32;9.05;;;4.32;;
12719;SDS011;6424;48.520;11.228;2023-06-22T09:22:13;9.52;;;5.00;;
12719;SDS011;6424;48.520;11.228;2023-06-22T09:24:55;11.30;;;4.63;;
12719;SDS011;6424;48.520;11.228;2023-06-22T09:27:36;11.25;;;4.88;;
12719;SDS011;6424;48.520;11.228;2023-06-22T09:30:02;8.05;;;4.45;;
12719;SDS011;6424;48.520;11.228;2023-06-22T09:32:43;9.43;;;4.85;;
12719;SDS011;6424;48.520;11.228;2023-06-22T09:35:24;11.95;;;4.50;;
12719;SDS011;6424;48.520;11.228;2023-06-22T09:38:05;7.97;;;4.95;;
12719;SDS011;6424;48.520;11.228;2023-06-22T09:40:31;8.65;;;4.60;;
12719;SDS011;6424;48.520;11.228;2023-06-22T09:43:16;9.45;;;5.35;;
12719;SDS011;6424;48.520;11.228;2023-06-22T09:45:57;8.25;;;4.60;;
12719;SDS011;6424;48.520;11.228;2023-06-22T09:48:38;10.65;;;4.55;;
12719;SDS011;6424;48.520;11.228;2023-06-22T09:51:19;5.97;;;4.45;;
12719;SDS011;6424;48.520;11.228;2023-06-22T09:54:03;9.63;;;4.43;;
12719;SDS011;6424;48.520;11.228;2023-06-22T09:56:44;9.90;;;4.72;;
12719;SDS011;6424;48.520;11.228;2023-06-22T09:59:25;10.70;;;5.03;;
12719;SDS011;6424;48.520;11.228;2023-06-22T10:02:06;10.02;;;4.20;;
12719;SDS011;6424;48.520;11.228;2023-06-22T10:04:47;8.85;;;4.93;;
12719;SDS011;6424;48.520;11.228;2023-06-22T10:07:13;8.07;;;4.32;;
12719;SDS011;6424;48.520;11.228;2023-06-22T10:09:54;9.88;;;4.28;;
12719;SDS011;6424;48.520;11.228;2023-06-22T10:12:35;10.18;;;4.95;;
12719;SDS011;6424;48.520;11.228;2023-06-22T10:15:15;9.57;;;4.60;;
12719;SDS011;6424;48.520;11.228;2023-06-22T10:17:56;10.02;;;4.45;;
12719;SDS011;6424;48.520;11.228;2023-06-22T10:20:37;8.07;;;4.18;;
12719;SDS011;6424;48.520;11.228;2023-06-22T10:23:18;5.95;;;3.90;;
12719;SDS011;6424;48.520;11.228;2023-06-22T10:26:00;10.65;;;4.55;;
12719;SDS011;6424;48.520;11.228;2023-06-22T10:28:41;8.48;;;4.70;;
12719;SDS011;6424;48.520;11.228;2023-06-22T10:31:21;8.30;;;3.75;;
12719;SDS011;6424;48.520;11.228;2023-06-22T10:34:02;7.45;;;4.43;;
12719;SDS011;6424;48.520;11.228;2023-06-22T10:36:43;7.68;;;4.78;;
12719;SDS011;6424;48.520;11.228;2023-06-22T10:39:27;10.63;;;4.35;;
12719;SDS011;6424;48.520;11.228;2023-06-22T10:42:08;8.65;;;4.68;;
12719;SDS011;6424;48.520;11.228;2023-06-22T10:44:48;8.38;;;4.68;;
12719;SDS011;6424;48.520;11.228;2023-06-22T10:47:29;8.15;;;4.30;;
12719;SDS011;6424;48.520;11.228;2023-06-22T10:49:55;11.07;;;4.40;;
12719;SDS011;6424;48.520;11.228;2023-06-22T10:52:36;8.10;;;4.30;;
12719;SDS011;6424;48.520;11.228;2023-06-22T10:55:17;9.88;;;4.30;;
12719;SDS011;6424;48.520;11.228;2023-06-22T10:57:42;7.85;;;4.38;;
12719;SDS011;6424;48.520;11.228;2023-06-22T11:00:09;7.95;;;4.60;;
12719;SDS011;6424;48.520;11.228;2023-06-22T11:02:51;11.25;;;4.82;;
12719;SDS011;6424;48.520;11.228;2023-06-22T11:05:32;5.53;;;4.50;;
12719;SDS011;6424;48.520;11.228;2023-06-22T11:08:13;8.10;;;4.43;;
12719;SDS011;6424;48.520;11.228;2023-06-22T11:10:54;7.70;;;4.70;;
12719;SDS011;6424;48.520;11.228;2023-06-22T11:13:34;11.68;;;5.10;;
12719;SDS011;6424;48.520;11.228;2023-06-22T11:16:00;9.02;;;4.88;;
12719;SDS011;6424;48.520;11.228;2023-06-22T11:18:26;10.93;;;4.40;;
12719;SDS011;6424;48.520;11.228;2023-06-22T11:20:52;8.90;;;3.88;;
12719;SDS011;6424;48.520;11.228;2023-06-22T11:23:33;10.55;;;4.68;;
12719;SDS011;6424;48.520;11.228;2023-06-22T11:26:13;8.77;;;4.32;;
12719;SDS011;6424;48.520;11.228;2023-06-22T11:28:54;14.82;;;5.03;;
12719;SDS011;6424;48.520;11.228;2023-06-22T11:31:35;11.85;;;4.55;;
12719;SDS011;6424;48.520;11.228;2023-06-22T11:34:16;9.70;;;4.78;;
12719;SDS011;6424;48.520;11.228;2023-06-22T11:36:57;10.63;;;4.63;;
12719;SDS011;6424;48.520;11.228;2023-06-22T11:39:38;11.05;;;4.47;;
12719;SDS011;6424;48.520;11.228;2023-06-22T11:42:19;8.85;;;5.03;;
12719;SDS011;6424;48.520;11.228;2023-06-22T11:44:59;12.20;;;5.03;;
12719;SDS011;6424;48.520;11.228;2023-06-22T11:47:40;13.68;;;4.70;;
12719;SDS011;6424;48.520;11.228;2023-06-22T15:59:57;11.55;;;5.55;;
12719;SDS011;6424;48.520;11.228;2023-06-22T16:02:38;9.52;;;5.18;;
12719;SDS011;6424;48.520;11.228;2023-06-22T16:05:19;12.48;;;5.03;;
12719;SDS011;6424;48.520;11.228;2023-06-22T16:08:00;14.98;;;5.35;;
12719;SDS011;6424;48.520;11.228;2023-06-22T16:10:41;12.43;;;5.60;;
12719;SDS011;6424;48.520;11.228;2023-06-22T16:13:22;13.70;;;5.40;;
12719;SDS011;6424;48.520;11.228;2023-06-22T16:15:47;10.35;;;5.18;;
12719;SDS011;6424;48.520;11.228;2023-06-22T16:18:28;12.32;;;5.20;;
12719;SDS011;6424;48.520;11.228;2023-06-22T16:21:09;12.73;;;5.20;;
12719;SDS011;6424;48.520;11.228;2023-06-22T16:23:50;10.90;;;5.05;;
12719;SDS011;6424;48.520;11.228;2023-06-22T16:26:36;10.20;;;5.30;;
12719;SDS011;6424;48.520;11.228;2023-06-22T16:29:19;15.77;;;5.78;;
12719;SDS011;6424;48.520;11.228;2023-06-22T16:31:59;8.10;;;4.93;;
12719;SDS011;6424;48.520;11.228;2023-06-22T16:34:40;10.45;;;5.45;;
12719;SDS011;6424;48.520;11.228;2023-06-22T16:37:21;8.45;;;5.30;;
12719;SDS011;6424;48.520;11.228;2023-06-22T16:40:02;13.63;;;5.60;;
12719;SDS011;6424;48.520;11.228;2023-06-22T16:42:45;11.45;;;5.38;;
12719;SDS011;6424;48.520;11.228;2023-06-22T16:45:30;11.95;;;5.65;;
12719;SDS011;6424;48.520;11.228;2023-06-22T16:48:12;13.38;;;5.43;;
12719;SDS011;6424;48.520;11.228;2023-06-22T16:50:53;12.80;;;5.38;;
12719;SDS011;6424;48.520;11.228;2023-06-22T16:53:34;10.55;;;5.35;;
12719;SDS011;6424;48.520;11.228;2023-06-22T16:56:15;10.52;;;5.03;;
12719;SDS011;6424;48.520;11.228;2023-06-22T16:58:56;15.20;;;6.03;;
12719;SDS011;6424;48.520;11.228;2023-06-22T17:01:24;12.65;;;5.68;;
12719;SDS011;6424;48.520;11.228;2023-06-22T17:04:09;17.25;;;5.82;;
12719;SDS011;6424;48.520;11.228;2023-06-22T17:06:56;11.00;;;5.30;;
12719;SDS011;6424;48.520;11.228;2023-06-22T17:09:42;11.45;;;5.55;;
12719;SDS011;6424;48.520;11.228;2023-06-22T17:12:28;10.40;;;5.70;;
12719;SDS011;6424;48.520;11.228;2023-06-22T17:15:09;13.15;;;5.45;;
12719;SDS011;6424;48.520;11.228;2023-06-22T17:17:53;11.93;;;5.60;;
12719;SDS011;6424;48.520;11.228;2023-06-22T17:20:34;25.70;;;9.02;;
12719;SDS011;6424;48.520;11.228;2023-06-22T17:23:15;17.90;;;7.22;;
12719;SDS011;6424;48.520;11.228;2023-06-22T17:25:57;14.45;;;7.32;;
12719;SDS011;6424;48.520;11.228;2023-06-22T17:28:50;24.73;;;8.32;;
12719;SDS011;6424;48.520;11.228;2023-06-22T17:31:36;16.10;;;8.20;;
12719;SDS011;6424;48.520;11.228;2023-06-22T17:34:19;17.93;;;7.60;;
12719;SDS011;6424;48.520;11.228;2023-06-22T17:37:00;13.13;;;7.07;;
12719;SDS011;6424;48.520;11.228;2023-06-22T17:39:41;14.50;;;7.57;;
12719;SDS011;6424;48.520;11.228;2023-06-22T17:42:32;17.97;;;8.27;;
12719;SDS011;6424;48.520;11.228;2023-06-22T17:45:16;13.43;;;8.10;;
12719;SDS011;6424;48.520;11.228;2023-06-22T17:47:59;16.37;;;7.70;;
12719;SDS011;6424;48.520;11.228;2023-06-22T17:50:43;14.97;;;8.27;;
12719;SDS011;6424;48.520;11.228;2023-06-22T17:53:25;16.33;;;9.37;;
12719;SDS011;6424;48.520;11.228;2023-06-22T17:56:07;17.07;;;9.33;;
12719;SDS011;6424;48.520;11.228;2023-06-22T17:58:52;17.37;;;8.87;;
12719;SDS011;6424;48.520;11.228;2023-06-22T18:01:37;19.70;;;9.90;;
12719;SDS011;6424;48.520;11.228;2023-06-22T18:04:18;13.40;;;8.50;;
12719;SDS011;6424;48.520;11.228;2023-06-22T18:06:59;17.47;;;9.10;;
12719;SDS011;6424;48.520;11.228;2023-06-22T18:09:42;14.27;;;8.13;;
12719;SDS011;6424;48.520;11.228;2023-06-22T18:12:23;18.00;;;9.23;;
12719;SDS011;6424;48.520;11.228;2023-06-22T18:15:04;16.10;;;8.53;;
12719;SDS011;6424;48.520;11.228;2023-06-22T18:17:46;13.43;;;8.00;;
12719;SDS011;6424;48.520;11.228;2023-06-22T18:20:29;17.17;;;7.60;;
12719;SDS011;6424;48.520;11.228;2023-06-22T18:23:12;14.40;;;7.90;;
12719;SDS011;6424;48.520;11.228;2023-06-22T18:25:54;16.10;;;7.47;;
12719;SDS011;6424;48.520;11.228;2023-06-22T18:28:35;14.87;;;8.37;;
12719;SDS011;6424;48.520;11.228;2023-06-22T18:31:01;15.67;;;7.97;;
12719;SDS011;6424;48.520;11.228;2023-06-22T18:33:42;15.17;;;7.87;;
12719;SDS011;6424;48.520;11.228;2023-06-22T18:36:31;14.17;;;7.03;;
12719;SDS011;6424;48.520;11.228;2023-06-22T18:39:25;13.20;;;7.63;;
12719;SDS011;6424;48.520;11.228;2023-06-22T18:42:10;13.20;;;7.67;;
12719;SDS011;6424;48.520;11.228;2023-06-22T18:44:54;14.13;;;7.63;;
12719;SDS011;6424;48.520;11.228;2023-06-22T18:47:35;15.33;;;7.53;;
12719;SDS011;6424;48.520;11.228;2023-06-22T18:50:16;14.67;;;8.13;;
12719;SDS011;6424;48.520;11.228;2023-06-22T18:53:25;16.03;;;8.60;;
12719;SDS011;6424;48.520;11.228;2023-06-22T18:56:11;11.97;;;7.43;;
12719;SDS011;6424;48.520;11.228;2023-06-22T18:58:56;13.80;;;7.13;;
12719;SDS011;6424;48.520;11.228;2023-06-22T19:01:23;14.37;;;8.10;;
12719;SDS011;6424;48.520;11.228;2023-06-22T19:04:15;15.93;;;7.67;;
12719;SDS011;6424;48.520;11.228;2023-06-22T19:06:57;14.97;;;7.97;;
12719;SDS011;6424;48.520;11.228;2023-06-22T19:09:37;13.77;;;6.90;;
12719;SDS011;6424;48.520;11.228;2023-06-22T19:15:09;13.40;;;6.87;;
12719;SDS011;6424;48.520;11.228;2023-06-22T19:17:51;15.27;;;7.60;;
12719;SDS011;6424;48.520;11.228;2023-06-22T19:20:32;12.37;;;6.30;;
12719;SDS011;6424;48.520;11.228;2023-06-22T19:23:23;15.00;;;7.97;;
12719;SDS011;6424;48.520;11.228;2023-06-22T19:26:06;16.67;;;8.13;;
12719;SDS011;6424;48.520;11.228;2023-06-22T19:28:49;13.40;;;7.67;;
12719;SDS011;6424;48.520;11.228;2023-06-22T19:31:30;12.73;;;7.47;;
12719;SDS011;6424;48.520;11.228;2023-06-22T19:34:00;11.83;;;7.30;;
12719;SDS011;6424;48.520;11.228;2023-06-22T19:36:44;13.53;;;8.00;;
12719;SDS011;6424;48.520;11.228;2023-06-22T19:39:10;14.70;;;7.53;;
12719;SDS011;6424;48.520;11.228;2023-06-22T19:41:53;14.03;;;7.63;;
12719;SDS011;6424;48.520;11.228;2023-06-22T19:44:34;16.53;;;7.67;;
12719;SDS011;6424;48.520;11.228;2023-06-22T19:47:15;11.33;;;6.67;;
12719;SDS011;6424;48.520;11.228;2023-06-22T19:49:44;13.03;;;5.27;;
12719;SDS011;6424;48.520;11.228;2023-06-22T19:52:25;9.93;;;5.00;;
12719;SDS011;6424;48.520;11.228;2023-06-22T19:55:13;12.33;;;4.80;;
12719;SDS011;6424;48.520;11.228;2023-06-22T19:57:54;11.47;;;4.13;;
12719;SDS011;6424;48.520;11.228;2023-06-22T20:00:35;12.03;;;4.50;;
12719;SDS011;6424;48.520;11.228;2023-06-22T20:03:16;19.47;;;6.03;;
12719;SDS011;6424;48.520;11.228;2023-06-22T20:06:09;14.00;;;4.80;;
12719;SDS011;6424;48.520;11.228;2023-06-22T20:08:55;14.07;;;5.13;;
12719;SDS011;6424;48.520;11.228;2023-06-22T20:11:24;9.23;;;4.60;;
12719;SDS011;6424;48.520;11.228;2023-06-22T20:14:09;14.83;;;5.43;;
12719;SDS011;6424;48.520;11.228;2023-06-22T20:16:49;16.67;;;6.07;;